sensor_id;sensor_type;location;lat;lon;timestamp;P1;durP1;ratioP1;P2;durP2;ratioP2
20894;SDS011;10607;42.066;24.742;2023-04-24T00:01:42;15.23;;;7.90;;
20894;SDS011;10607;42.066;24.742;2023-04-24T00:04:08;12.97;;;8.20;;
20894;SDS011;10607;42.066;24.742;2023-04-24T00:06:35;13.63;;;8.53;;
20894;SDS011;10607;42.066;24.742;2023-04-24T00:09:02;15.60;;;9.00;;
20894;SDS011;10607;42.066;24.742;2023-04-24T00:11:28;18.57;;;8.23;;
20894;SDS011;10607;42.066;24.742;2023-04-24T00:13:53;13.90;;;8.63;;
20894;SDS011;10607;42.066;24.742;2023-04-24T00:16:19;10.57;;;7.33;;
20894;SDS011;10607;42.066;24.742;2023-04-24T00:18:44;10.37;;;8.10;;
20894;SDS011;10607;42.066;24.742;2023-04-24T00:21:17;11.10;;;8.10;;
20894;SDS011;10607;42.066;24.742;2023-04-24T00:23:43;11.23;;;7.83;;
20894;SDS011;10607;42.066;24.742;2023-04-24T00:26:08;15.67;;;8.97;;
20894;SDS011;10607;42.066;24.742;2023-04-24T00:28:34;13.83;;;8.47;;
20894;SDS011;10607;42.066;24.742;2023-04-24T00:30:59;13.60;;;8.33;;
20894;SDS011;10607;42.066;24.742;2023-04-24T00:33:24;14.50;;;8.13;;
20894;SDS011;10607;42.066;24.742;2023-04-24T00:35:50;16.83;;;8.27;;
20894;SDS011;10607;42.066;24.742;2023-04-24T00:38:15;16.20;;;8.27;;
20894;SDS011;10607;42.066;24.742;2023-04-24T00:40:40;15.20;;;8.10;;
20894;SDS011;10607;42.066;24.742;2023-04-24T00:43:06;12.77;;;9.03;;
20894;SDS011;10607;42.066;24.742;2023-04-24T00:45:31;11.60;;;9.30;;
20894;SDS011;10607;42.066;24.742;2023-04-24T00:47:57;13.80;;;9.17;;
20894;SDS011;10607;42.066;24.742;2023-04-24T00:50:23;11.83;;;8.60;;
20894;SDS011;10607;42.066;24.742;2023-04-24T00:52:49;13.33;;;8.37;;
20894;SDS011;10607;42.066;24.742;2023-04-24T00:55:14;10.47;;;8.53;;
20894;SDS011;10607;42.066;24.742;2023-04-24T00:57:40;13.43;;;9.03;;
20894;SDS011;10607;42.066;24.742;2023-04-24T01:00:06;15.60;;;9.87;;
20894;SDS011;10607;42.066;24.742;2023-04-24T01:02:37;15.60;;;9.27;;
20894;SDS011;10607;42.066;24.742;2023-04-24T01:05:05;11.93;;;9.13;;
20894;SDS011;10607;42.066;24.742;2023-04-24T01:07:30;12.57;;;8.67;;
20894;SDS011;10607;42.066;24.742;2023-04-24T01:09:56;15.30;;;9.00;;
20894;SDS011;10607;42.066;24.742;2023-04-24T01:12:22;19.10;;;9.13;;
20894;SDS011;10607;42.066;24.742;2023-04-24T01:14:47;17.07;;;10.93;;
20894;SDS011;10607;42.066;24.742;2023-04-24T01:17:12;11.43;;;8.83;;
20894;SDS011;10607;42.066;24.742;2023-04-24T01:19:38;15.10;;;9.07;;
20894;SDS011;10607;42.066;24.742;2023-04-24T01:22:03;14.37;;;9.57;;
20894;SDS011;10607;42.066;24.742;2023-04-24T01:24:29;12.43;;;9.47;;
20894;SDS011;10607;42.066;24.742;2023-04-24T01:26:55;16.10;;;9.07;;
20894;SDS011;10607;42.066;24.742;2023-04-24T01:29:20;16.10;;;9.60;;
20894;SDS011;10607;42.066;24.742;2023-04-24T01:31:46;14.67;;;9.90;;
20894;SDS011;10607;42.066;24.742;2023-04-24T01:34:11;14.60;;;9.97;;
20894;SDS011;10607;42.066;24.742;2023-04-24T01:36:37;12.93;;;10.03;;
20894;SDS011;10607;42.066;24.742;2023-04-24T01:39:02;17.33;;;10.27;;
20894;SDS011;10607;42.066;24.742;2023-04-24T01:41:29;14.10;;;10.60;;
20894;SDS011;10607;42.066;24.742;2023-04-24T01:43:54;18.03;;;10.87;;
20894;SDS011;10607;42.066;24.742;2023-04-24T01:46:20;16.73;;;10.23;;
20894;SDS011;10607;42.066;24.742;2023-04-24T01:48:45;14.20;;;10.80;;
20894;SDS011;10607;42.066;24.742;2023-04-24T01:51:11;24.20;;;10.43;;
20894;SDS011;10607;42.066;24.742;2023-04-24T01:53:36;14.67;;;9.77;;
20894;SDS011;10607;42.066;24.742;2023-04-24T01:56:01;24.27;;;10.90;;
20894;SDS011;10607;42.066;24.742;2023-04-24T01:58:27;17.77;;;10.60;;
20894;SDS011;10607;42.066;24.742;2023-04-24T02:00:53;18.63;;;10.97;;
20894;SDS011;10607;42.066;24.742;2023-04-24T02:03:20;15.07;;;10.73;;
20894;SDS011;10607;42.066;24.742;2023-04-24T02:05:46;21.03;;;11.13;;
20894;SDS011;10607;42.066;24.742;2023-04-24T02:08:11;12.47;;;10.33;;
20894;SDS011;10607;42.066;24.742;2023-04-24T02:10:36;14.97;;;10.67;;
20894;SDS011;10607;42.066;24.742;2023-04-24T02:13:02;17.67;;;10.13;;
20894;SDS011;10607;42.066;24.742;2023-04-24T02:15:27;18.77;;;10.53;;
20894;SDS011;10607;42.066;24.742;2023-04-24T02:17:52;15.00;;;9.63;;
20894;SDS011;10607;42.066;24.742;2023-04-24T02:20:17;16.50;;;9.37;;
20894;SDS011;10607;42.066;24.742;2023-04-24T02:22:43;13.87;;;9.30;;
20894;SDS011;10607;42.066;24.742;2023-04-24T02:25:08;15.23;;;10.57;;
20894;SDS011;10607;42.066;24.742;2023-04-24T02:27:33;11.40;;;8.83;;
20894;SDS011;10607;42.066;24.742;2023-04-24T02:29:59;16.60;;;8.87;;
20894;SDS011;10607;42.066;24.742;2023-04-24T02:32:24;15.73;;;9.47;;
20894;SDS011;10607;42.066;24.742;2023-04-24T02:34:49;14.80;;;8.53;;
20894;SDS011;10607;42.066;24.742;2023-04-24T02:37:15;15.13;;;8.80;;
20894;SDS011;10607;42.066;24.742;2023-04-24T02:39:40;11.47;;;7.97;;
20894;SDS011;10607;42.066;24.742;2023-04-24T02:42:05;8.77;;;7.20;;
20894;SDS011;10607;42.066;24.742;2023-04-24T02:44:33;12.23;;;7.30;;
20894;SDS011;10607;42.066;24.742;2023-04-24T02:46:58;10.97;;;6.70;;
20894;SDS011;10607;42.066;24.742;2023-04-24T02:49:23;10.57;;;7.00;;
20894;SDS011;10607;42.066;24.742;2023-04-24T02:51:49;13.43;;;7.77;;
20894;SDS011;10607;42.066;24.742;2023-04-24T02:54:14;8.43;;;6.77;;
20894;SDS011;10607;42.066;24.742;2023-04-24T02:56:39;7.60;;;6.53;;
20894;SDS011;10607;42.066;24.742;2023-04-24T02:59:04;6.87;;;5.93;;
20894;SDS011;10607;42.066;24.742;2023-04-24T03:01:30;10.10;;;7.23;;
20894;SDS011;10607;42.066;24.742;2023-04-24T03:03:55;15.23;;;7.60;;
20894;SDS011;10607;42.066;24.742;2023-04-24T03:06:20;13.20;;;7.00;;
20894;SDS011;10607;42.066;24.742;2023-04-24T03:08:46;10.80;;;7.60;;
20894;SDS011;10607;42.066;24.742;2023-04-24T03:11:11;11.60;;;7.83;;
20894;SDS011;10607;42.066;24.742;2023-04-24T03:13:37;10.27;;;8.43;;
20894;SDS011;10607;42.066;24.742;2023-04-24T03:16:02;11.90;;;7.93;;
20894;SDS011;10607;42.066;24.742;2023-04-24T03:18:27;13.10;;;8.20;;
20894;SDS011;10607;42.066;24.742;2023-04-24T03:20:53;11.87;;;8.50;;
20894;SDS011;10607;42.066;24.742;2023-04-24T03:23:18;15.07;;;7.87;;
20894;SDS011;10607;42.066;24.742;2023-04-24T03:25:43;13.70;;;8.20;;
20894;SDS011;10607;42.066;24.742;2023-04-24T03:28:09;22.30;;;8.83;;
20894;SDS011;10607;42.066;24.742;2023-04-24T03:30:34;13.80;;;8.47;;
20894;SDS011;10607;42.066;24.742;2023-04-24T03:32:59;17.10;;;9.33;;
20894;SDS011;10607;42.066;24.742;2023-04-24T03:35:25;12.17;;;9.07;;
20894;SDS011;10607;42.066;24.742;2023-04-24T03:37:50;14.57;;;9.03;;
20894;SDS011;10607;42.066;24.742;2023-04-24T03:40:15;18.33;;;9.40;;
20894;SDS011;10607;42.066;24.742;2023-04-24T03:42:40;16.77;;;9.23;;
20894;SDS011;10607;42.066;24.742;2023-04-24T03:45:06;22.73;;;9.03;;
20894;SDS011;10607;42.066;24.742;2023-04-24T03:47:31;16.07;;;9.00;;
20894;SDS011;10607;42.066;24.742;2023-04-24T03:49:57;28.40;;;8.93;;
20894;SDS011;10607;42.066;24.742;2023-04-24T03:52:22;16.30;;;9.10;;
20894;SDS011;10607;42.066;24.742;2023-04-24T03:54:47;16.70;;;8.97;;
20894;SDS011;10607;42.066;24.742;2023-04-24T03:57:13;17.63;;;8.90;;
20894;SDS011;10607;42.066;24.742;2023-04-24T03:59:38;17.53;;;8.73;;
20894;SDS011;10607;42.066;24.742;2023-04-24T04:02:03;15.87;;;8.90;;
20894;SDS011;10607;42.066;24.742;2023-04-24T04:04:29;18.13;;;8.57;;
20894;SDS011;10607;42.066;24.742;2023-04-24T04:06:54;17.77;;;8.83;;
20894;SDS011;10607;42.066;24.742;2023-04-24T04:09:19;21.77;;;8.87;;
20894;SDS011;10607;42.066;24.742;2023-04-24T04:11:45;19.23;;;8.87;;
20894;SDS011;10607;42.066;24.742;2023-04-24T04:14:10;19.33;;;9.23;;
20894;SDS011;10607;42.066;24.742;2023-04-24T04:16:35;21.60;;;10.33;;
20894;SDS011;10607;42.066;24.742;2023-04-24T04:19:03;27.83;;;9.17;;
20894;SDS011;10607;42.066;24.742;2023-04-24T04:21:29;23.23;;;10.27;;
20894;SDS011;10607;42.066;24.742;2023-04-24T04:23:55;15.03;;;10.07;;
20894;SDS011;10607;42.066;24.742;2023-04-24T04:26:21;18.67;;;9.50;;
20894;SDS011;10607;42.066;24.742;2023-04-24T04:28:50;13.30;;;9.20;;
20894;SDS011;10607;42.066;24.742;2023-04-24T04:31:16;16.23;;;9.70;;
20894;SDS011;10607;42.066;24.742;2023-04-24T04:33:41;22.63;;;10.50;;
20894;SDS011;10607;42.066;24.742;2023-04-24T04:36:06;14.10;;;9.17;;
20894;SDS011;10607;42.066;24.742;2023-04-24T04:38:32;12.03;;;9.73;;
20894;SDS011;10607;42.066;24.742;2023-04-24T04:40:58;13.03;;;10.33;;
20894;SDS011;10607;42.066;24.742;2023-04-24T04:43:24;19.77;;;10.20;;
20894;SDS011;10607;42.066;24.742;2023-04-24T04:45:49;22.43;;;10.43;;
20894;SDS011;10607;42.066;24.742;2023-04-24T04:48:16;16.63;;;10.63;;
20894;SDS011;10607;42.066;24.742;2023-04-24T04:50:42;19.73;;;10.10;;
20894;SDS011;10607;42.066;24.742;2023-04-24T04:53:07;18.43;;;9.00;;
20894;SDS011;10607;42.066;24.742;2023-04-24T04:55:33;14.10;;;8.50;;
20894;SDS011;10607;42.066;24.742;2023-04-24T04:57:58;20.27;;;8.13;;
20894;SDS011;10607;42.066;24.742;2023-04-24T05:00:25;17.52;;;9.57;;
20894;SDS011;10607;42.066;24.742;2023-04-24T05:02:50;16.20;;;8.63;;
20894;SDS011;10607;42.066;24.742;2023-04-24T05:05:16;17.93;;;9.53;;
20894;SDS011;10607;42.066;24.742;2023-04-24T05:07:42;16.40;;;9.43;;
20894;SDS011;10607;42.066;24.742;2023-04-24T05:10:08;16.70;;;8.85;;
20894;SDS011;10607;42.066;24.742;2023-04-24T05:12:33;14.60;;;9.25;;
20894;SDS011;10607;42.066;24.742;2023-04-24T05:14:58;13.93;;;9.15;;
20894;SDS011;10607;42.066;24.742;2023-04-24T05:17:24;19.10;;;9.45;;
20894;SDS011;10607;42.066;24.742;2023-04-24T05:19:49;14.73;;;9.48;;
20894;SDS011;10607;42.066;24.742;2023-04-24T05:22:14;15.18;;;9.05;;
20894;SDS011;10607;42.066;24.742;2023-04-24T05:24:40;12.40;;;9.15;;
20894;SDS011;10607;42.066;24.742;2023-04-24T05:27:05;13.85;;;9.10;;
20894;SDS011;10607;42.066;24.742;2023-04-24T05:29:31;15.05;;;9.32;;
20894;SDS011;10607;42.066;24.742;2023-04-24T05:31:57;13.23;;;8.63;;
20894;SDS011;10607;42.066;24.742;2023-04-24T05:34:22;15.32;;;9.10;;
20894;SDS011;10607;42.066;24.742;2023-04-24T05:36:47;25.35;;;9.60;;
20894;SDS011;10607;42.066;24.742;2023-04-24T05:39:13;16.50;;;9.60;;
20894;SDS011;10607;42.066;24.742;2023-04-24T05:41:38;16.90;;;9.80;;
20894;SDS011;10607;42.066;24.742;2023-04-24T05:44:04;18.80;;;10.90;;
20894;SDS011;10607;42.066;24.742;2023-04-24T05:46:29;20.15;;;10.20;;
20894;SDS011;10607;42.066;24.742;2023-04-24T05:48:54;16.60;;;10.57;;
20894;SDS011;10607;42.066;24.742;2023-04-24T05:51:20;15.50;;;9.70;;
20894;SDS011;10607;42.066;24.742;2023-04-24T05:53:45;11.30;;;9.38;;
20894;SDS011;10607;42.066;24.742;2023-04-24T05:56:10;14.70;;;9.35;;
20894;SDS011;10607;42.066;24.742;2023-04-24T05:58:36;17.70;;;11.10;;
20894;SDS011;10607;42.066;24.742;2023-04-24T06:01:02;21.70;;;11.77;;
20894;SDS011;10607;42.066;24.742;2023-04-24T06:03:28;20.67;;;11.68;;
20894;SDS011;10607;42.066;24.742;2023-04-24T06:05:53;20.98;;;12.57;;
20894;SDS011;10607;42.066;24.742;2023-04-24T06:08:19;21.92;;;12.35;;
20894;SDS011;10607;42.066;24.742;2023-04-24T06:10:45;16.63;;;11.52;;
20894;SDS011;10607;42.066;24.742;2023-04-24T06:13:10;24.40;;;12.63;;
20894;SDS011;10607;42.066;24.742;2023-04-24T06:15:36;19.77;;;13.13;;
20894;SDS011;10607;42.066;24.742;2023-04-24T06:18:01;22.52;;;12.98;;
20894;SDS011;10607;42.066;24.742;2023-04-24T06:20:27;18.02;;;11.88;;
20894;SDS011;10607;42.066;24.742;2023-04-24T06:22:53;23.58;;;12.38;;
20894;SDS011;10607;42.066;24.742;2023-04-24T06:25:18;14.82;;;11.07;;
20894;SDS011;10607;42.066;24.742;2023-04-24T06:27:44;23.98;;;11.07;;
20894;SDS011;10607;42.066;24.742;2023-04-24T06:30:09;17.25;;;10.85;;
20894;SDS011;10607;42.066;24.742;2023-04-24T06:32:35;17.48;;;12.05;;
20894;SDS011;10607;42.066;24.742;2023-04-24T06:35:00;20.65;;;11.60;;
20894;SDS011;10607;42.066;24.742;2023-04-24T06:37:25;16.33;;;9.63;;
20894;SDS011;10607;42.066;24.742;2023-04-24T06:39:50;14.05;;;9.32;;
20894;SDS011;10607;42.066;24.742;2023-04-24T06:42:16;18.77;;;10.52;;
20894;SDS011;10607;42.066;24.742;2023-04-24T06:44:41;18.90;;;10.52;;
20894;SDS011;10607;42.066;24.742;2023-04-24T06:47:07;18.35;;;10.65;;
20894;SDS011;10607;42.066;24.742;2023-04-24T06:49:37;16.73;;;10.27;;
20894;SDS011;10607;42.066;24.742;2023-04-24T06:52:02;17.48;;;10.25;;
20894;SDS011;10607;42.066;24.742;2023-04-24T06:54:28;15.48;;;9.98;;
20894;SDS011;10607;42.066;24.742;2023-04-24T06:56:53;16.95;;;10.20;;
20894;SDS011;10607;42.066;24.742;2023-04-24T06:59:19;16.27;;;9.85;;
20894;SDS011;10607;42.066;24.742;2023-04-24T07:01:44;14.50;;;9.43;;
20894;SDS011;10607;42.066;24.742;2023-04-24T07:04:10;13.48;;;10.00;;
20894;SDS011;10607;42.066;24.742;2023-04-24T07:06:37;16.27;;;8.65;;
20894;SDS011;10607;42.066;24.742;2023-04-24T07:09:02;13.75;;;9.57;;
20894;SDS011;10607;42.066;24.742;2023-04-24T07:11:28;15.48;;;9.30;;
20894;SDS011;10607;42.066;24.742;2023-04-24T07:13:54;17.40;;;9.93;;
20894;SDS011;10607;42.066;24.742;2023-04-24T07:16:19;15.80;;;10.20;;
20894;SDS011;10607;42.066;24.742;2023-04-24T07:18:45;18.73;;;10.55;;
20894;SDS011;10607;42.066;24.742;2023-04-24T07:21:10;16.70;;;10.30;;
20894;SDS011;10607;42.066;24.742;2023-04-24T07:23:36;17.60;;;10.27;;
20894;SDS011;10607;42.066;24.742;2023-04-24T07:26:01;18.65;;;9.98;;
20894;SDS011;10607;42.066;24.742;2023-04-24T07:28:27;20.80;;;10.88;;
20894;SDS011;10607;42.066;24.742;2023-04-24T07:30:56;14.77;;;9.50;;
20894;SDS011;10607;42.066;24.742;2023-04-24T07:33:21;23.30;;;10.68;;
20894;SDS011;10607;42.066;24.742;2023-04-24T07:35:46;18.35;;;10.60;;
20894;SDS011;10607;42.066;24.742;2023-04-24T07:38:12;18.23;;;10.60;;
20894;SDS011;10607;42.066;24.742;2023-04-24T07:40:37;25.65;;;11.70;;
20894;SDS011;10607;42.066;24.742;2023-04-24T07:43:03;24.77;;;11.95;;
20894;SDS011;10607;42.066;24.742;2023-04-24T07:45:28;29.02;;;12.88;;
20894;SDS011;10607;42.066;24.742;2023-04-24T07:47:53;22.45;;;11.75;;
20894;SDS011;10607;42.066;24.742;2023-04-24T07:50:18;17.05;;;9.98;;
20894;SDS011;10607;42.066;24.742;2023-04-24T07:52:44;19.42;;;9.38;;
20894;SDS011;10607;42.066;24.742;2023-04-24T07:55:09;14.70;;;10.05;;
20894;SDS011;10607;42.066;24.742;2023-04-24T07:57:34;14.68;;;10.60;;
20894;SDS011;10607;42.066;24.742;2023-04-24T08:00:00;14.18;;;9.75;;
20894;SDS011;10607;42.066;24.742;2023-04-24T08:02:25;11.25;;;9.13;;
20894;SDS011;10607;42.066;24.742;2023-04-24T08:04:52;13.07;;;8.68;;
20894;SDS011;10607;42.066;24.742;2023-04-24T08:07:18;16.98;;;9.77;;
20894;SDS011;10607;42.066;24.742;2023-04-24T08:09:44;19.80;;;10.25;;
20894;SDS011;10607;42.066;24.742;2023-04-24T08:12:09;13.10;;;9.43;;
20894;SDS011;10607;42.066;24.742;2023-04-24T08:14:34;15.20;;;8.98;;
20894;SDS011;10607;42.066;24.742;2023-04-24T08:17:00;12.95;;;9.07;;
20894;SDS011;10607;42.066;24.742;2023-04-24T08:19:26;16.73;;;8.75;;
20894;SDS011;10607;42.066;24.742;2023-04-24T08:21:51;11.30;;;8.95;;
20894;SDS011;10607;42.066;24.742;2023-04-24T08:24:16;15.00;;;9.15;;
20894;SDS011;10607;42.066;24.742;2023-04-24T08:26:42;20.38;;;9.30;;
20894;SDS011;10607;42.066;24.742;2023-04-24T08:29:07;11.93;;;8.75;;
20894;SDS011;10607;42.066;24.742;2023-04-24T08:31:33;14.57;;;8.98;;
20894;SDS011;10607;42.066;24.742;2023-04-24T08:33:58;22.35;;;9.55;;
20894;SDS011;10607;42.066;24.742;2023-04-24T08:36:25;14.27;;;9.18;;
20894;SDS011;10607;42.066;24.742;2023-04-24T08:38:51;17.13;;;9.70;;
20894;SDS011;10607;42.066;24.742;2023-04-24T08:41:16;16.95;;;8.52;;
20894;SDS011;10607;42.066;24.742;2023-04-24T08:43:42;20.58;;;9.15;;
20894;SDS011;10607;42.066;24.742;2023-04-24T08:46:08;19.52;;;8.75;;
20894;SDS011;10607;42.066;24.742;2023-04-24T08:48:35;15.68;;;8.77;;
20894;SDS011;10607;42.066;24.742;2023-04-24T08:51:00;13.93;;;8.18;;
20894;SDS011;10607;42.066;24.742;2023-04-24T08:53:27;15.60;;;9.07;;
20894;SDS011;10607;42.066;24.742;2023-04-24T08:55:54;13.95;;;8.18;;
20894;SDS011;10607;42.066;24.742;2023-04-24T08:58:20;12.65;;;7.95;;
20894;SDS011;10607;42.066;24.742;2023-04-24T09:00:45;13.18;;;7.50;;
20894;SDS011;10607;42.066;24.742;2023-04-24T09:03:15;8.82;;;6.82;;
20894;SDS011;10607;42.066;24.742;2023-04-24T09:05:42;15.38;;;8.60;;
20894;SDS011;10607;42.066;24.742;2023-04-24T09:08:10;13.60;;;8.43;;
20894;SDS011;10607;42.066;24.742;2023-04-24T09:10:38;10.30;;;6.93;;
20894;SDS011;10607;42.066;24.742;2023-04-24T09:13:04;13.88;;;8.57;;
20894;SDS011;10607;42.066;24.742;2023-04-24T09:15:29;13.25;;;7.80;;
20894;SDS011;10607;42.066;24.742;2023-04-24T09:17:55;13.45;;;7.55;;
20894;SDS011;10607;42.066;24.742;2023-04-24T09:20:20;9.25;;;6.47;;
20894;SDS011;10607;42.066;24.742;2023-04-24T09:22:45;12.02;;;6.28;;
20894;SDS011;10607;42.066;24.742;2023-04-24T09:25:11;14.77;;;6.43;;
20894;SDS011;10607;42.066;24.742;2023-04-24T09:27:41;10.30;;;7.07;;
20894;SDS011;10607;42.066;24.742;2023-04-24T09:30:06;13.25;;;8.15;;
20894;SDS011;10607;42.066;24.742;2023-04-24T09:32:32;18.67;;;8.40;;
20894;SDS011;10607;42.066;24.742;2023-04-24T09:37:36;12.00;;;7.05;;
20894;SDS011;10607;42.066;24.742;2023-04-24T09:42:33;10.63;;;6.35;;
20894;SDS011;10607;42.066;24.742;2023-04-24T09:44:58;14.52;;;6.18;;
20894;SDS011;10607;42.066;24.742;2023-04-24T09:47:23;13.95;;;7.38;;
20894;SDS011;10607;42.066;24.742;2023-04-24T09:49:49;18.30;;;8.88;;
20894;SDS011;10607;42.066;24.742;2023-04-24T09:52:14;13.68;;;6.75;;
20894;SDS011;10607;42.066;24.742;2023-04-24T09:54:40;12.05;;;6.25;;
20894;SDS011;10607;42.066;24.742;2023-04-24T09:57:07;12.45;;;5.88;;
20894;SDS011;10607;42.066;24.742;2023-04-24T09:59:33;12.38;;;5.57;;
20894;SDS011;10607;42.066;24.742;2023-04-24T10:01:59;13.63;;;6.50;;
20894;SDS011;10607;42.066;24.742;2023-04-24T10:04:25;9.82;;;6.75;;
20894;SDS011;10607;42.066;24.742;2023-04-24T10:06:52;19.00;;;6.60;;
20894;SDS011;10607;42.066;24.742;2023-04-24T10:09:18;12.43;;;6.13;;
20894;SDS011;10607;42.066;24.742;2023-04-24T10:11:44;12.25;;;6.65;;
20894;SDS011;10607;42.066;24.742;2023-04-24T10:14:12;12.15;;;6.85;;
20894;SDS011;10607;42.066;24.742;2023-04-24T10:16:39;12.55;;;6.35;;
20894;SDS011;10607;42.066;24.742;2023-04-24T10:19:05;13.18;;;6.43;;
20894;SDS011;10607;42.066;24.742;2023-04-24T10:21:31;8.10;;;6.10;;
20894;SDS011;10607;42.066;24.742;2023-04-24T10:23:56;9.38;;;5.93;;
20894;SDS011;10607;42.066;24.742;2023-04-24T10:26:22;12.18;;;5.22;;
20894;SDS011;10607;42.066;24.742;2023-04-24T10:28:48;9.40;;;5.70;;
20894;SDS011;10607;42.066;24.742;2023-04-24T10:31:14;12.60;;;6.13;;
20894;SDS011;10607;42.066;24.742;2023-04-24T10:33:42;10.48;;;5.97;;
20894;SDS011;10607;42.066;24.742;2023-04-24T10:36:11;10.95;;;6.18;;
20894;SDS011;10607;42.066;24.742;2023-04-24T10:38:39;7.88;;;5.15;;
20894;SDS011;10607;42.066;24.742;2023-04-24T10:41:08;11.23;;;5.90;;
20894;SDS011;10607;42.066;24.742;2023-04-24T10:43:34;6.10;;;4.82;;
20894;SDS011;10607;42.066;24.742;2023-04-24T10:46:03;6.85;;;5.00;;
20894;SDS011;10607;42.066;24.742;2023-04-24T10:48:29;9.45;;;4.97;;
20894;SDS011;10607;42.066;24.742;2023-04-24T10:50:55;11.93;;;5.68;;
20894;SDS011;10607;42.066;24.742;2023-04-24T10:53:21;8.95;;;5.35;;
20894;SDS011;10607;42.066;24.742;2023-04-24T10:55:51;10.68;;;4.85;;
20894;SDS011;10607;42.066;24.742;2023-04-24T10:58:21;10.52;;;5.65;;
20894;SDS011;10607;42.066;24.742;2023-04-24T11:00:56;11.27;;;5.65;;
20894;SDS011;10607;42.066;24.742;2023-04-24T11:03:23;12.85;;;6.53;;
20894;SDS011;10607;42.066;24.742;2023-04-24T11:06:07;9.38;;;5.60;;
20894;SDS011;10607;42.066;24.742;2023-04-24T11:11:14;9.27;;;4.45;;
20894;SDS011;10607;42.066;24.742;2023-04-24T11:16:30;10.95;;;5.40;;
20894;SDS011;10607;42.066;24.742;2023-04-24T11:22:14;10.63;;;5.22;;
20894;SDS011;10607;42.066;24.742;2023-04-24T11:24:40;8.57;;;5.50;;
20894;SDS011;10607;42.066;24.742;2023-04-24T11:27:16;12.40;;;5.70;;
20894;SDS011;10607;42.066;24.742;2023-04-24T11:34:54;10.20;;;5.53;;
20894;SDS011;10607;42.066;24.742;2023-04-24T11:37:21;14.05;;;6.55;;
20894;SDS011;10607;42.066;24.742;2023-04-24T11:39:46;16.40;;;6.65;;
20894;SDS011;10607;42.066;24.742;2023-04-24T11:42:14;17.83;;;6.45;;
20894;SDS011;10607;42.066;24.742;2023-04-24T11:44:39;10.48;;;5.53;;
20894;SDS011;10607;42.066;24.742;2023-04-24T11:47:06;9.52;;;6.28;;
20894;SDS011;10607;42.066;24.742;2023-04-24T11:49:37;9.15;;;5.88;;
20894;SDS011;10607;42.066;24.742;2023-04-24T11:52:02;10.18;;;5.57;;
20894;SDS011;10607;42.066;24.742;2023-04-24T11:54:28;9.07;;;5.20;;
20894;SDS011;10607;42.066;24.742;2023-04-24T11:56:53;9.23;;;4.72;;
20894;SDS011;10607;42.066;24.742;2023-04-24T11:59:18;8.93;;;5.10;;
20894;SDS011;10607;42.066;24.742;2023-04-24T12:01:44;14.50;;;6.38;;
20894;SDS011;10607;42.066;24.742;2023-04-24T12:04:10;11.02;;;4.80;;
20894;SDS011;10607;42.066;24.742;2023-04-24T12:06:35;10.82;;;5.18;;
20894;SDS011;10607;42.066;24.742;2023-04-24T12:09:01;8.88;;;5.15;;
20894;SDS011;10607;42.066;24.742;2023-04-24T12:11:26;8.35;;;4.72;;
20894;SDS011;10607;42.066;24.742;2023-04-24T12:13:51;11.52;;;5.40;;
20894;SDS011;10607;42.066;24.742;2023-04-24T12:16:17;11.65;;;5.15;;
20894;SDS011;10607;42.066;24.742;2023-04-24T12:18:43;14.52;;;5.40;;
20894;SDS011;10607;42.066;24.742;2023-04-24T12:21:23;7.32;;;4.82;;
20894;SDS011;10607;42.066;24.742;2023-04-24T12:23:53;11.65;;;4.95;;
20894;SDS011;10607;42.066;24.742;2023-04-24T12:26:19;9.43;;;4.55;;
20894;SDS011;10607;42.066;24.742;2023-04-24T12:28:46;5.80;;;4.60;;
20894;SDS011;10607;42.066;24.742;2023-04-24T12:31:11;10.82;;;4.97;;
20894;SDS011;10607;42.066;24.742;2023-04-24T12:33:37;8.75;;;4.47;;
20894;SDS011;10607;42.066;24.742;2023-04-24T12:36:03;6.50;;;4.50;;
20894;SDS011;10607;42.066;24.742;2023-04-24T12:38:30;13.10;;;4.45;;
20894;SDS011;10607;42.066;24.742;2023-04-24T12:41:05;9.18;;;4.50;;
20894;SDS011;10607;42.066;24.742;2023-04-24T12:43:31;11.48;;;4.72;;
20894;SDS011;10607;42.066;24.742;2023-04-24T12:45:57;10.95;;;4.00;;
20894;SDS011;10607;42.066;24.742;2023-04-24T12:48:22;8.95;;;4.38;;
20894;SDS011;10607;42.066;24.742;2023-04-24T12:50:47;10.43;;;4.82;;
20894;SDS011;10607;42.066;24.742;2023-04-24T12:53:13;8.02;;;5.07;;
20894;SDS011;10607;42.066;24.742;2023-04-24T12:55:38;8.05;;;4.80;;
20894;SDS011;10607;42.066;24.742;2023-04-24T12:58:03;5.50;;;4.00;;
20894;SDS011;10607;42.066;24.742;2023-04-24T13:00:29;10.20;;;4.10;;
20894;SDS011;10607;42.066;24.742;2023-04-24T13:02:54;6.47;;;4.32;;
20894;SDS011;10607;42.066;24.742;2023-04-24T13:05:20;10.77;;;4.20;;
20894;SDS011;10607;42.066;24.742;2023-04-24T13:07:45;6.75;;;4.22;;
20894;SDS011;10607;42.066;24.742;2023-04-24T13:10:10;8.65;;;3.80;;
20894;SDS011;10607;42.066;24.742;2023-04-24T13:12:36;10.77;;;3.80;;
20894;SDS011;10607;42.066;24.742;2023-04-24T13:15:01;5.43;;;3.65;;
20894;SDS011;10607;42.066;24.742;2023-04-24T13:17:27;6.72;;;3.63;;
20894;SDS011;10607;42.066;24.742;2023-04-24T13:19:53;16.50;;;3.95;;
20894;SDS011;10607;42.066;24.742;2023-04-24T13:22:19;7.47;;;4.22;;
20894;SDS011;10607;42.066;24.742;2023-04-24T13:24:45;6.90;;;4.03;;
20894;SDS011;10607;42.066;24.742;2023-04-24T13:27:10;5.85;;;3.97;;
20894;SDS011;10607;42.066;24.742;2023-04-24T13:29:36;6.22;;;3.40;;
20894;SDS011;10607;42.066;24.742;2023-04-24T13:32:01;10.43;;;3.63;;
20894;SDS011;10607;42.066;24.742;2023-04-24T13:34:26;6.93;;;3.60;;
20894;SDS011;10607;42.066;24.742;2023-04-24T13:36:55;8.98;;;3.70;;
20894;SDS011;10607;42.066;24.742;2023-04-24T13:39:21;8.63;;;3.60;;
20894;SDS011;10607;42.066;24.742;2023-04-24T13:41:46;6.35;;;3.58;;
20894;SDS011;10607;42.066;24.742;2023-04-24T13:44:13;10.88;;;4.03;;
20894;SDS011;10607;42.066;24.742;2023-04-24T13:46:39;8.13;;;4.65;;
20894;SDS011;10607;42.066;24.742;2023-04-24T13:49:04;6.53;;;3.60;;
20894;SDS011;10607;42.066;24.742;2023-04-24T13:51:29;5.32;;;3.42;;
20894;SDS011;10607;42.066;24.742;2023-04-24T13:53:55;5.32;;;3.40;;
20894;SDS011;10607;42.066;24.742;2023-04-24T13:56:20;8.02;;;3.85;;
20894;SDS011;10607;42.066;24.742;2023-04-24T13:58:46;7.75;;;3.83;;
20894;SDS011;10607;42.066;24.742;2023-04-24T14:01:11;4.70;;;3.70;;
20894;SDS011;10607;42.066;24.742;2023-04-24T14:03:37;10.90;;;3.92;;
20894;SDS011;10607;42.066;24.742;2023-04-24T14:06:03;7.28;;;3.95;;
20894;SDS011;10607;42.066;24.742;2023-04-24T14:08:28;6.53;;;4.03;;
20894;SDS011;10607;42.066;24.742;2023-04-24T14:10:53;9.63;;;4.00;;
20894;SDS011;10607;42.066;24.742;2023-04-24T14:13:18;5.57;;;3.97;;
20894;SDS011;10607;42.066;24.742;2023-04-24T14:15:44;7.38;;;3.97;;
20894;SDS011;10607;42.066;24.742;2023-04-24T14:18:09;6.85;;;3.75;;
20894;SDS011;10607;42.066;24.742;2023-04-24T14:20:34;7.07;;;3.95;;
20894;SDS011;10607;42.066;24.742;2023-04-24T14:23:00;5.88;;;4.25;;
20894;SDS011;10607;42.066;24.742;2023-04-24T14:25:25;10.10;;;4.70;;
20894;SDS011;10607;42.066;24.742;2023-04-24T14:27:51;5.80;;;3.80;;
20894;SDS011;10607;42.066;24.742;2023-04-24T14:30:16;7.90;;;3.22;;
20894;SDS011;10607;42.066;24.742;2023-04-24T14:32:41;6.30;;;4.05;;